sensor_id;sensor_type;location;lat;lon;timestamp;pressure;altitude;pressure_sealevel;temperature;humidity
39083;BME280;24834;44.444;26.098;2023-05-01T04:06:46;100727.19;;;16.30;
39083;BME280;24834;44.444;26.098;2023-05-01T10:11:30;100982.47;;;23.95;
39083;BME280;24834;44.444;26.098;2023-05-01T10:17:34;100980.53;;;23.73;
39083;BME280;24834;44.444;26.098;2023-05-01T10:23:37;100992.69;;;24.39;
39083;BME280;24834;44.444;26.098;2023-05-01T10:29:40;100975.53;;;25.13;
39083;BME280;24834;44.444;26.098;2023-05-01T10:35:48;100977.16;;;24.25;
39083;BME280;24834;44.444;26.098;2023-05-01T10:42:09;100971.97;;;25.02;
39083;BME280;24834;44.444;26.098;2023-05-01T10:54:41;100965.56;;;26.05;
39083;BME280;24834;44.444;26.098;2023-05-01T11:07:29;100967.38;;;25.43;
39083;BME280;24834;44.444;26.098;2023-05-01T11:14:02;100973.69;;;24.84;
39083;BME280;24834;44.444;26.098;2023-05-01T11:26:27;100975.50;;;24.76;
39083;BME280;24834;44.444;26.098;2023-05-01T11:32:36;100967.91;;;25.15;
39083;BME280;24834;44.444;26.098;2023-05-01T11:38:50;100964.22;;;25.78;
39083;BME280;24834;44.444;26.098;2023-05-01T11:45:08;100954.16;;;26.39;
39083;BME280;24834;44.444;26.098;2023-05-01T11:51:12;100956.91;;;26.43;
39083;BME280;24834;44.444;26.098;2023-05-01T11:57:16;100949.72;;;27.00;
39083;BME280;24834;44.444;26.098;2023-05-01T12:03:21;100942.44;;;27.46;
39083;BME280;24834;44.444;26.098;2023-05-01T12:09:25;100936.66;;;26.02;
39083;BME280;24834;44.444;26.098;2023-05-01T12:15:36;100928.09;;;26.72;
39083;BME280;24834;44.444;26.098;2023-05-01T12:21:42;100927.66;;;26.59;
39083;BME280;24834;44.444;26.098;2023-05-01T12:27:44;100930.84;;;26.86;
39083;BME280;24834;44.444;26.098;2023-05-01T12:34:03;100919.28;;;25.96;
39083;BME280;24834;44.444;26.098;2023-05-01T12:40:14;100912.38;;;25.44;
39083;BME280;24834;44.444;26.098;2023-05-01T12:46:21;100918.69;;;25.62;
39083;BME280;24834;44.444;26.098;2023-05-01T12:52:26;100915.31;;;24.55;
39083;BME280;24834;44.444;26.098;2023-05-01T12:58:36;100921.16;;;24.31;
39083;BME280;24834;44.444;26.098;2023-05-01T13:04:42;100924.53;;;24.87;
39083;BME280;24834;44.444;26.098;2023-05-01T13:10:48;100918.59;;;25.51;
39083;BME280;24834;44.444;26.098;2023-05-01T13:16:53;100907.06;;;26.16;
39083;BME280;24834;44.444;26.098;2023-05-01T13:22:56;100902.13;;;26.32;
39083;BME280;24834;44.444;26.098;2023-05-01T13:29:02;100898.00;;;25.77;
39083;BME280;24834;44.444;26.098;2023-05-01T13:35:07;100907.47;;;26.14;
39083;BME280;24834;44.444;26.098;2023-05-01T13:41:17;100914.16;;;26.59;
39083;BME280;24834;44.444;26.098;2023-05-01T13:47:22;100908.72;;;25.69;
39083;BME280;24834;44.444;26.098;2023-05-01T13:53:28;100907.91;;;25.18;
39083;BME280;24834;44.444;26.098;2023-05-01T13:59:42;100915.50;;;24.69;
39083;BME280;24834;44.444;26.098;2023-05-01T14:05:46;100921.50;;;24.59;
39083;BME280;24834;44.444;26.098;2023-05-01T14:11:53;100915.34;;;25.28;
39083;BME280;24834;44.444;26.098;2023-05-01T14:17:56;100914.72;;;25.45;
39083;BME280;24834;44.444;26.098;2023-05-01T14:24:02;100915.00;;;25.37;
39083;BME280;24834;44.444;26.098;2023-05-01T14:30:18;100924.09;;;25.72;
39083;BME280;24834;44.444;26.098;2023-05-01T14:36:25;100924.94;;;25.80;
39083;BME280;24834;44.444;26.098;2023-05-01T14:42:30;100927.25;;;25.78;
39083;BME280;24834;44.444;26.098;2023-05-01T14:48:35;100937.16;;;25.63;
39083;BME280;24834;44.444;26.098;2023-05-01T14:54:44;100928.72;;;25.21;
39083;BME280;24834;44.444;26.098;2023-05-01T15:00:47;100933.31;;;25.17;
39083;BME280;24834;44.444;26.098;2023-05-01T15:06:52;100930.63;;;25.17;
39083;BME280;24834;44.444;26.098;2023-05-01T15:12:55;100926.19;;;25.39;
39083;BME280;24834;44.444;26.098;2023-05-01T15:18:58;100919.56;;;25.29;
39083;BME280;24834;44.444;26.098;2023-05-01T15:25:02;100924.22;;;25.36;
39083;BME280;24834;44.444;26.098;2023-05-01T15:31:06;100927.97;;;25.24;
39083;BME280;24834;44.444;26.098;2023-05-01T15:37:08;100926.63;;;25.04;
39083;BME280;24834;44.444;26.098;2023-05-01T15:43:11;100926.47;;;24.86;
39083;BME280;24834;44.444;26.098;2023-05-01T15:49:14;100932.53;;;24.80;
39083;BME280;24834;44.444;26.098;2023-05-01T15:55:18;100929.25;;;24.64;
39083;BME280;24834;44.444;26.098;2023-05-01T16:01:22;100929.13;;;24.53;
39083;BME280;24834;44.444;26.098;2023-05-01T16:07:27;100930.59;;;24.51;
39083;BME280;24834;44.444;26.098;2023-05-01T16:13:36;100935.03;;;24.36;
39083;BME280;24834;44.444;26.098;2023-05-01T16:19:47;100949.34;;;24.14;
39083;BME280;24834;44.444;26.098;2023-05-01T16:25:55;100963.03;;;24.05;
39083;BME280;24834;44.444;26.098;2023-05-01T16:31:59;100968.78;;;23.81;
39083;BME280;24834;44.444;26.098;2023-05-01T16:38:02;100964.59;;;23.38;
39083;BME280;24834;44.444;26.098;2023-05-01T16:44:06;100975.69;;;23.18;
39083;BME280;24834;44.444;26.098;2023-05-01T16:50:11;100979.25;;;23.03;
39083;BME280;24834;44.444;26.098;2023-05-01T16:56:14;100979.44;;;22.75;
39083;BME280;24834;44.444;26.098;2023-05-01T17:02:21;100985.25;;;22.42;
39083;BME280;24834;44.444;26.098;2023-05-01T17:08:24;100989.28;;;22.36;
39083;BME280;24834;44.444;26.098;2023-05-01T17:14:32;100982.13;;;22.25;
39083;BME280;24834;44.444;26.098;2023-05-01T17:20:34;101005.19;;;21.98;
39083;BME280;24834;44.444;26.098;2023-05-01T17:26:39;101002.66;;;21.74;
39083;BME280;24834;44.444;26.098;2023-05-01T17:32:41;101012.31;;;21.63;
39083;BME280;24834;44.444;26.098;2023-05-01T17:38:45;101020.06;;;21.52;
39083;BME280;24834;44.444;26.098;2023-05-01T17:44:48;101030.44;;;21.41;
39083;BME280;24834;44.444;26.098;2023-05-01T17:50:53;101032.06;;;21.30;
39083;BME280;24834;44.444;26.098;2023-05-01T17:57:02;101030.97;;;21.19;
39083;BME280;24834;44.444;26.098;2023-05-01T18:03:06;101048.41;;;21.13;
39083;BME280;24834;44.444;26.098;2023-05-01T18:09:11;101058.84;;;21.06;
39083;BME280;24834;44.444;26.098;2023-05-01T18:15:17;101060.66;;;20.90;
39083;BME280;24834;44.444;26.098;2023-05-01T18:21:23;101066.50;;;20.80;
39083;BME280;24834;44.444;26.098;2023-05-01T18:27:28;101067.91;;;20.78;
39083;BME280;24834;44.444;26.098;2023-05-01T18:33:33;101067.69;;;20.70;
39083;BME280;24834;44.444;26.098;2023-05-01T18:39:36;101081.50;;;20.60;
39083;BME280;24834;44.444;26.098;2023-05-01T18:45:41;101090.06;;;20.54;
39083;BME280;24834;44.444;26.098;2023-05-01T18:51:44;101102.09;;;20.48;
39083;BME280;24834;44.444;26.098;2023-05-01T18:57:50;101104.97;;;20.43;
39083;BME280;24834;44.444;26.098;2023-05-01T19:03:52;101107.16;;;20.29;
39083;BME280;24834;44.444;26.098;2023-05-01T19:10:03;101118.94;;;20.28;
39083;BME280;24834;44.444;26.098;2023-05-01T19:16:06;101123.06;;;20.25;
39083;BME280;24834;44.444;26.098;2023-05-01T19:22:14;101120.47;;;20.17;
39083;BME280;24834;44.444;26.098;2023-05-01T19:28:21;101117.88;;;20.08;
39083;BME280;24834;44.444;26.098;2023-05-01T19:34:23;101125.00;;;19.83;
39083;BME280;24834;44.444;26.098;2023-05-01T19:40:29;101129.56;;;19.83;
39083;BME280;24834;44.444;26.098;2023-05-01T19:46:32;101141.78;;;19.84;
39083;BME280;24834;44.444;26.098;2023-05-01T19:52:39;101128.28;;;19.60;
39083;BME280;24834;44.444;26.098;2023-05-01T19:58:45;101137.97;;;19.43;
39083;BME280;24834;44.444;26.098;2023-05-01T20:04:51;101140.03;;;19.38;
39083;BME280;24834;44.444;26.098;2023-05-01T20:10:55;101141.53;;;19.27;
39083;BME280;24834;44.444;26.098;2023-05-01T20:16:59;101131.88;;;19.14;
39083;BME280;24834;44.444;26.098;2023-05-01T20:23:10;101148.03;;;19.09;
39083;BME280;24834;44.444;26.098;2023-05-01T20:29:14;101139.06;;;19.13;
39083;BME280;24834;44.444;26.098;2023-05-01T20:35:19;101148.84;;;19.09;
39083;BME280;24834;44.444;26.098;2023-05-01T20:41:23;101153.97;;;19.06;
39083;BME280;24834;44.444;26.098;2023-05-01T20:47:27;101160.09;;;19.06;
39083;BME280;24834;44.444;26.098;2023-05-01T20:53:31;101162.47;;;18.99;
39083;BME280;24834;44.444;26.098;2023-05-01T20:59:37;101171.28;;;19.00;
39083;BME280;24834;44.444;26.098;2023-05-01T21:05:41;101163.34;;;18.83;
39083;BME280;24834;44.444;26.098;2023-05-01T21:11:48;101176.03;;;18.77;
39083;BME280;24834;44.444;26.098;2023-05-01T21:17:53;101169.19;;;18.67;
39083;BME280;24834;44.444;26.098;2023-05-01T21:23:57;101176.41;;;18.50;
39083;BME280;24834;44.444;26.098;2023-05-01T21:30:00;101177.97;;;18.42;
39083;BME280;24834;44.444;26.098;2023-05-01T21:36:06;101172.97;;;18.32;
39083;BME280;24834;44.444;26.098;2023-05-01T21:42:08;101183.44;;;18.11;
39083;BME280;24834;44.444;26.098;2023-05-01T21:48:15;101186.38;;;18.01;
39083;BME280;24834;44.444;26.098;2023-05-01T21:54:23;101190.13;;;17.92;
39083;BME280;24834;44.444;26.098;2023-05-01T22:00:25;101204.22;;;17.84;
39083;BME280;24834;44.444;26.098;2023-05-01T22:06:30;101207.03;;;17.79;
39083;BME280;24834;44.444;26.098;2023-05-01T22:12:33;101168.09;;;17.43;
39083;BME280;24834;44.444;26.098;2023-05-01T22:18:40;101211.19;;;17.63;
39083;BME280;24834;44.444;26.098;2023-05-01T22:24:42;101208.13;;;17.38;
39083;BME280;24834;44.444;26.098;2023-05-01T22:30:45;101209.47;;;17.27;
39083;BME280;24834;44.444;26.098;2023-05-01T22:36:51;101210.22;;;17.19;
39083;BME280;24834;44.444;26.098;2023-05-01T22:42:56;101221.91;;;17.10;
39083;BME280;24834;44.444;26.098;2023-05-01T22:48:59;101220.50;;;16.90;
39083;BME280;24834;44.444;26.098;2023-05-01T22:55:04;101207.44;;;16.80;
39083;BME280;24834;44.444;26.098;2023-05-01T23:01:13;101206.97;;;16.78;
39083;BME280;24834;44.444;26.098;2023-05-01T23:07:21;101216.03;;;16.77;
39083;BME280;24834;44.444;26.098;2023-05-01T23:13:25;101203.78;;;16.67;
39083;BME280;24834;44.444;26.098;2023-05-01T23:19:29;101204.44;;;16.73;
39083;BME280;24834;44.444;26.098;2023-05-01T23:25:32;101201.84;;;16.59;
39083;BME280;24834;44.444;26.098;2023-05-01T23:31:35;101199.13;;;16.51;
39083;BME280;24834;44.444;26.098;2023-05-01T23:37:39;101205.56;;;16.58;
39083;BME280;24834;44.444;26.098;2023-05-01T23:43:41;101204.50;;;16.46;
39083;BME280;24834;44.444;26.098;2023-05-01T23:49:45;101208.38;;;16.40;
39083;BME280;24834;44.444;26.098;2023-05-01T23:55:48;101197.00;;;16.25;
